createdAt,value
2023-05-24T00:00:26.499Z,9.12
2023-05-24T00:01:26.551Z,9.16
2023-05-24T00:02:26.490Z,9.17
2023-05-24T00:03:26.543Z,9.13
2023-05-24T00:04:26.452Z,9.12
2023-05-24T00:05:26.472Z,9.03
2023-05-24T00:06:26.351Z,9.12
2023-05-24T00:07:26.373Z,9.03
2023-05-24T00:08:26.299Z,8.96
2023-05-24T00:09:26.276Z,8.94
2023-05-24T00:10:26.252Z,8.94
2023-05-24T00:11:26.300Z,8.88
2023-05-24T00:12:26.210Z,8.91
2023-05-24T00:13:26.217Z,8.88
2023-05-24T00:14:26.163Z,8.86
2023-05-24T00:15:26.136Z,8.86
2023-05-24T00:16:26.161Z,8.83
2023-05-24T00:17:26.145Z,8.89
2023-05-24T00:18:26.163Z,8.79
2023-05-24T00:19:26.021Z,8.85
2023-05-24T00:20:26.102Z,8.85
2023-05-24T00:21:26.000Z,8.82
2023-05-24T00:22:25.971Z,8.82
2023-05-24T00:23:25.926Z,8.78
2023-05-24T00:24:25.977Z,8.79
2023-05-24T00:25:25.888Z,8.80
2023-05-24T00:26:25.881Z,8.82
2023-05-24T00:27:25.825Z,8.86
2023-05-24T00:28:25.915Z,8.86
2023-05-24T00:29:25.790Z,8.93
2023-05-24T00:30:25.819Z,8.96
2023-05-24T00:31:25.806Z,8.96
2023-05-24T00:32:25.755Z,8.93
2023-05-24T00:33:25.688Z,8.94
2023-05-24T00:34:25.758Z,8.98
2023-05-24T00:35:25.631Z,9.03
2023-05-24T00:36:25.663Z,9.10
2023-05-24T00:37:25.587Z,9.10
2023-05-24T00:38:25.555Z,9.01
2023-05-24T00:39:25.578Z,9.06
2023-05-24T00:40:25.520Z,9.06
2023-05-24T00:41:25.500Z,8.97
2023-05-24T00:42:25.467Z,9.04
2023-05-24T00:43:25.444Z,9.03
2023-05-24T00:44:25.410Z,9.06
2023-05-24T00:45:25.425Z,8.96
2023-05-24T00:46:25.401Z,8.97
2023-05-24T00:47:25.478Z,8.97
2023-05-24T00:48:25.310Z,8.94
2023-05-24T00:49:25.280Z,8.86
2023-05-24T00:50:25.252Z,8.89
2023-05-24T00:51:25.261Z,8.89
2023-05-24T00:52:25.202Z,8.91
2023-05-24T00:53:25.278Z,8.82
2023-05-24T00:54:25.149Z,8.80
2023-05-24T00:55:25.129Z,8.76
2023-05-24T00:56:25.203Z,8.78
2023-05-24T00:57:25.092Z,8.75
2023-05-24T00:58:25.106Z,8.73
2023-05-24T00:59:25.038Z,8.61
2023-05-24T01:00:25.033Z,8.55
2023-05-24T01:01:25.048Z,8.58
2023-05-24T01:02:25.136Z,8.50
2023-05-24T01:03:25.090Z,8.45
2023-05-24T01:04:24.946Z,8.37
2023-05-24T01:05:24.880Z,8.42
2023-05-24T01:06:24.883Z,8.42
2023-05-24T01:07:24.848Z,8.31
2023-05-24T01:08:24.884Z,8.25
2023-05-24T01:09:24.803Z,8.28
2023-05-24T01:10:24.787Z,8.24
2023-05-24T01:11:24.735Z,8.14
2023-05-24T01:12:24.714Z,8.13
2023-05-24T01:13:24.689Z,8.04
2023-05-24T01:14:24.718Z,8.06
2023-05-24T01:15:24.633Z,7.99
2023-05-24T01:16:24.654Z,8.00
2023-05-24T01:17:24.682Z,8.06
2023-05-24T01:18:24.559Z,8.04
2023-05-24T01:19:24.546Z,8.03
2023-05-24T01:20:24.556Z,8.06
2023-05-24T01:21:24.570Z,8.04
2023-05-24T01:22:24.464Z,8.04
2023-05-24T01:23:24.444Z,8.00
2023-05-24T01:24:24.419Z,7.96
2023-05-24T01:25:24.497Z,7.99
2023-05-24T01:26:24.357Z,7.86
2023-05-24T01:27:24.434Z,7.89
2023-05-24T01:28:24.302Z,7.85
2023-05-24T01:29:24.278Z,7.85
2023-05-24T01:30:24.254Z,7.85
2023-05-24T01:31:24.360Z,7.81
2023-05-24T01:32:24.220Z,7.81
2023-05-24T01:33:24.247Z,7.81
2023-05-24T01:34:24.149Z,7.86
2023-05-24T01:35:24.126Z,7.79
2023-05-24T01:36:24.170Z,7.86
2023-05-24T01:37:24.079Z,7.76
2023-05-24T01:38:24.075Z,7.76
2023-05-24T01:39:24.026Z,7.77
2023-05-24T01:40:24.010Z,7.74
2023-05-24T01:41:23.976Z,7.70
2023-05-24T01:42:23.999Z,7.69
2023-05-24T01:43:23.932Z,7.77
2023-05-24T01:44:23.966Z,7.70
2023-05-24T01:45:23.875Z,7.66
2023-05-24T01:46:23.877Z,7.66
2023-05-24T01:47:23.839Z,7.62
2023-05-24T01:48:23.848Z,7.63
2023-05-24T01:49:23.770Z,7.60
2023-05-24T01:50:25.729Z,7.54
2023-05-24T01:51:23.717Z,7.58
2023-05-24T01:52:23.724Z,7.54
2023-05-24T01:53:23.675Z,7.63
2023-05-24T01:54:23.680Z,7.54
2023-05-24T01:55:23.612Z,7.60
2023-05-24T01:56:23.693Z,7.51
2023-05-24T01:57:23.573Z,7.54
2023-05-24T01:58:23.648Z,7.55
2023-05-24T01:59:23.500Z,7.51
2023-05-24T02:00:23.522Z,7.44
2023-05-24T02:01:23.523Z,7.51
2023-05-24T02:02:23.630Z,7.52
2023-05-24T02:03:23.495Z,7.55
2023-05-24T02:04:23.395Z,7.44
2023-05-24T02:05:23.459Z,7.45
2023-05-24T02:06:23.329Z,7.42
2023-05-24T02:07:23.371Z,7.41
2023-05-24T02:08:23.320Z,7.41
2023-05-24T02:09:23.250Z,7.42
2023-05-24T02:10:23.289Z,7.55
2023-05-24T02:11:23.215Z,7.48
2023-05-24T02:12:23.195Z,7.48
2023-05-24T02:13:23.156Z,7.34
2023-05-24T02:14:23.221Z,7.44
2023-05-24T02:15:23.101Z,7.41
2023-05-24T02:16:23.153Z,7.37
2023-05-24T02:17:23.085Z,7.37
2023-05-24T02:18:23.158Z,7.37
2023-05-24T02:19:22.993Z,7.39
2023-05-24T02:20:23.054Z,7.39
2023-05-24T02:21:22.946Z,7.45
2023-05-24T02:22:22.967Z,7.45
2023-05-24T02:23:22.897Z,7.42
2023-05-24T02:24:22.992Z,7.52
2023-05-24T02:25:22.845Z,7.54
2023-05-24T02:26:22.842Z,7.51
2023-05-24T02:27:22.791Z,7.41
2023-05-24T02:28:22.817Z,7.42
2023-05-24T02:29:22.760Z,7.41
2023-05-24T02:30:22.833Z,7.34
2023-05-24T02:31:22.780Z,7.33
2023-05-24T02:32:22.689Z,7.21
2023-05-24T02:33:22.745Z,7.26
2023-05-24T02:34:22.615Z,7.21
2023-05-24T02:35:22.645Z,7.18
2023-05-24T02:36:22.568Z,7.14
2023-05-24T02:37:22.578Z,7.16
2023-05-24T02:38:22.510Z,7.21
2023-05-24T02:39:22.593Z,7.15
2023-05-24T02:40:22.459Z,7.21
2023-05-24T02:41:22.523Z,7.21
2023-05-24T02:42:22.398Z,7.21
2023-05-24T02:43:22.392Z,7.24
2023-05-24T02:44:22.366Z,7.27
2023-05-24T02:45:22.416Z,7.29
2023-05-24T02:46:22.363Z,7.23
2023-05-24T02:47:22.364Z,7.27
2023-05-24T02:48:22.257Z,7.26
2023-05-24T02:49:22.228Z,7.23
2023-05-24T02:50:22.242Z,7.27
2023-05-24T02:51:22.173Z,7.16
2023-05-24T02:52:22.163Z,7.16
2023-05-24T02:53:22.117Z,7.23
2023-05-24T02:54:22.181Z,7.14
2023-05-24T02:55:22.067Z,7.16
2023-05-24T02:56:22.094Z,7.24
2023-05-24T02:57:22.010Z,7.11
2023-05-24T02:58:22.109Z,7.16
2023-05-24T02:59:21.956Z,7.12
2023-05-24T03:00:21.952Z,7.15
2023-05-24T03:01:21.917Z,7.12
2023-05-24T03:02:21.947Z,7.01
2023-05-24T03:03:21.921Z,6.93
2023-05-24T03:04:21.946Z,7.00
2023-05-24T03:05:21.802Z,6.93
2023-05-24T03:06:21.768Z,6.91
2023-05-24T03:07:21.745Z,6.99
2023-05-24T03:08:21.757Z,6.90
2023-05-24T03:09:21.706Z,6.96
2023-05-24T03:10:21.791Z,7.04
2023-05-24T03:11:21.641Z,7.00
2023-05-24T03:12:21.615Z,6.96
2023-05-24T03:13:21.708Z,7.00
2023-05-24T03:14:21.561Z,7.00
2023-05-24T03:15:21.608Z,6.99
2023-05-24T03:16:21.543Z,6.96
2023-05-24T03:17:21.527Z,6.90
2023-05-24T03:18:21.471Z,6.90
2023-05-24T03:19:21.536Z,6.87
2023-05-24T03:20:21.483Z,6.76
2023-05-24T03:21:21.530Z,6.83
2023-05-24T03:22:21.364Z,6.78
2023-05-24T03:23:21.333Z,6.73
2023-05-24T03:24:21.304Z,6.72
2023-05-24T03:25:21.372Z,6.73
2023-05-24T03:26:21.249Z,6.72
2023-05-24T03:27:21.281Z,6.61
2023-05-24T03:28:21.215Z,6.65
2023-05-24T03:29:21.185Z,6.58
2023-05-24T03:30:21.154Z,6.61
2023-05-24T03:31:21.278Z,6.71
2023-05-24T03:32:21.100Z,6.71
2023-05-24T03:33:21.133Z,6.78
2023-05-24T03:34:21.051Z,6.73
2023-05-24T03:35:21.043Z,6.75
2023-05-24T03:36:20.987Z,6.71
2023-05-24T03:37:21.058Z,6.65
2023-05-24T03:38:20.944Z,6.75
2023-05-24T03:39:20.966Z,6.72
2023-05-24T03:40:20.980Z,6.65
2023-05-24T03:41:20.863Z,6.68
2023-05-24T03:42:20.885Z,6.63
2023-05-24T03:43:20.817Z,6.64
2023-05-24T03:44:20.803Z,6.61
2023-05-24T03:45:30.601Z,6.58
2023-05-24T03:46:20.771Z,6.57
2023-05-24T03:47:20.791Z,6.76
2023-05-24T03:48:20.688Z,6.72
2023-05-24T03:49:20.750Z,6.73
2023-05-24T03:50:20.621Z,6.79
2023-05-24T03:51:20.642Z,6.72
2023-05-24T03:52:20.572Z,6.72
2023-05-24T03:53:22.288Z,6.71
2023-05-24T03:54:20.529Z,6.75
2023-05-24T03:55:20.570Z,6.76
2023-05-24T03:56:20.464Z,6.75
2023-05-24T03:57:20.444Z,6.78
2023-05-24T03:58:20.425Z,6.81
2023-05-24T03:59:20.492Z,6.72
2023-05-24T04:00:20.360Z,6.82
2023-05-24T04:01:32.192Z,6.83
2023-05-24T04:02:20.362Z,6.93
2023-05-24T04:03:20.408Z,6.94
2023-05-24T04:04:20.279Z,6.93
2023-05-24T04:05:20.334Z,6.93
2023-05-24T04:06:20.210Z,6.96
2023-05-24T04:07:20.270Z,6.97
2023-05-24T04:08:20.174Z,7.01
2023-05-24T04:09:20.117Z,6.96
2023-05-24T04:10:20.165Z,7.01
2023-05-24T04:11:20.060Z,7.01
2023-05-24T04:12:20.102Z,7.09
2023-05-24T04:13:20.012Z,7.15
2023-05-24T04:14:20.102Z,7.09
2023-05-24T04:15:19.951Z,7.14
2023-05-24T04:16:20.019Z,7.16
2023-05-24T04:17:20.068Z,7.16
2023-05-24T04:18:20.007Z,7.18
2023-05-24T04:19:19.849Z,7.21
2023-05-24T04:20:19.847Z,7.21
2023-05-24T04:21:19.822Z,7.23
2023-05-24T04:22:19.865Z,7.29
2023-05-24T04:23:19.741Z,7.32
2023-05-24T04:24:19.752Z,7.33
2023-05-24T04:25:19.731Z,7.33
2023-05-24T04:26:19.679Z,7.42
2023-05-24T04:27:19.642Z,7.34
2023-05-24T04:28:19.680Z,7.39
2023-05-24T04:29:19.587Z,7.45
2023-05-24T04:30:19.620Z,7.44
2023-05-24T04:31:19.548Z,7.42
2023-05-24T04:32:19.506Z,7.51
2023-05-24T04:33:19.514Z,7.54
2023-05-24T04:34:19.453Z,7.63
2023-05-24T04:35:19.544Z,7.63
2023-05-24T04:36:19.423Z,7.60
2023-05-24T04:37:19.383Z,7.63
2023-05-24T04:38:21.764Z,7.67
2023-05-24T04:39:19.363Z,7.70
2023-05-24T04:40:19.298Z,7.63
2023-05-24T04:41:19.377Z,7.69
2023-05-24T04:42:19.249Z,7.70
2023-05-24T04:43:19.220Z,7.77
2023-05-24T04:44:19.198Z,7.73
2023-05-24T04:45:19.195Z,7.74
2023-05-24T04:46:19.170Z,7.81
2023-05-24T04:47:19.214Z,7.86
2023-05-24T04:48:19.110Z,7.88
2023-05-24T04:49:19.063Z,7.85
2023-05-24T04:50:19.132Z,7.89
2023-05-24T04:51:19.014Z,7.95
2023-05-24T04:52:19.042Z,8.02
2023-05-24T04:53:18.962Z,7.99
2023-05-24T04:54:18.954Z,8.04
2023-05-24T04:55:18.907Z,8.02
2023-05-24T04:56:18.972Z,8.06
2023-05-24T04:57:18.866Z,8.07
2023-05-24T04:58:18.875Z,8.13
2023-05-24T04:59:18.804Z,8.12
2023-05-24T05:00:18.798Z,8.13
2023-05-24T05:01:18.801Z,8.13
2023-05-24T05:02:18.809Z,8.10
2023-05-24T05:03:18.753Z,8.17
2023-05-24T05:04:18.742Z,8.12
2023-05-24T05:05:18.644Z,8.17
2023-05-24T05:06:18.619Z,8.24
2023-05-24T05:07:18.606Z,8.21
2023-05-24T05:08:18.655Z,8.24
2023-05-24T05:09:18.536Z,8.27
2023-05-24T05:10:18.566Z,8.29
2023-05-24T05:11:18.486Z,8.27
2023-05-24T05:12:18.470Z,8.36
2023-05-24T05:13:18.481Z,8.40
2023-05-24T05:14:18.415Z,8.46
2023-05-24T05:15:18.493Z,8.43
2023-05-24T05:16:18.385Z,8.42
2023-05-24T05:17:18.339Z,8.47
2023-05-24T05:18:18.350Z,8.54
2023-05-24T05:19:18.316Z,8.47
2023-05-24T05:20:18.269Z,8.49
2023-05-24T05:21:18.331Z,8.49
2023-05-24T05:22:18.207Z,8.64
2023-05-24T05:23:18.185Z,8.64
2023-05-24T05:24:18.146Z,8.71
2023-05-24T05:25:18.157Z,8.83
2023-05-24T05:26:18.129Z,8.85
2023-05-24T05:27:18.172Z,8.96
2023-05-24T05:28:18.055Z,8.98
2023-05-24T05:29:18.021Z,9.03
2023-05-24T05:30:18.103Z,9.12
2023-05-24T05:31:17.966Z,9.08
2023-05-24T05:32:18.021Z,9.17
2023-05-24T05:33:17.977Z,9.10
2023-05-24T05:34:17.916Z,9.23
2023-05-24T05:35:17.895Z,9.19
2023-05-24T05:36:17.930Z,9.27
2023-05-24T05:37:17.828Z,9.22
2023-05-24T05:38:17.849Z,9.19
2023-05-24T05:39:17.777Z,9.30
2023-05-24T05:40:17.744Z,9.30
2023-05-24T05:41:17.730Z,9.37
2023-05-24T05:42:17.764Z,9.41
2023-05-24T05:43:17.659Z,9.48
2023-05-24T05:44:17.680Z,9.41
2023-05-24T05:45:17.615Z,9.45
2023-05-24T05:46:17.642Z,9.49
2023-05-24T05:47:17.612Z,9.48
2023-05-24T05:48:17.547Z,9.56
2023-05-24T05:49:17.618Z,9.59
2023-05-24T05:50:17.488Z,9.70
2023-05-24T05:51:17.550Z,9.71
2023-05-24T05:52:17.434Z,9.71
2023-05-24T05:53:17.440Z,9.63
2023-05-24T05:54:17.390Z,9.73
2023-05-24T05:55:17.469Z,9.74
2023-05-24T05:56:17.333Z,9.74
2023-05-24T05:57:17.303Z,9.68
2023-05-24T05:58:17.288Z,9.68
2023-05-24T05:59:17.283Z,9.74
2023-05-24T06:00:17.230Z,9.86
2023-05-24T06:01:17.314Z,9.89
2023-05-24T06:02:17.239Z,9.78
2023-05-24T06:03:17.294Z,9.86
2023-05-24T06:04:17.269Z,9.80
2023-05-24T06:05:17.113Z,9.83
2023-05-24T06:06:18.413Z,9.83
2023-05-24T06:07:17.166Z,9.88
2023-05-24T06:08:17.165Z,9.99
2023-05-24T06:09:17.024Z,9.96
2023-05-24T06:10:18.112Z,10.11
2023-05-24T06:11:16.965Z,10.14
2023-05-24T06:12:17.934Z,10.24
2023-05-24T06:13:16.905Z,10.28
2023-05-24T06:14:16.884Z,10.31
2023-05-24T06:15:16.852Z,10.36
2023-05-24T06:16:16.993Z,10.36
2023-05-24T06:17:16.800Z,10.38
2023-05-24T06:18:16.830Z,10.39
2023-05-24T06:19:16.944Z,10.46
2023-05-24T06:20:16.764Z,10.44
2023-05-24T06:21:16.701Z,10.44
2023-05-24T06:22:16.755Z,10.52
2023-05-24T06:23:16.650Z,10.58
2023-05-24T06:24:16.663Z,10.65
2023-05-24T06:25:16.611Z,10.69
2023-05-24T06:26:16.575Z,10.69
2023-05-24T06:27:16.682Z,10.78
2023-05-24T06:28:16.553Z,10.91
2023-05-24T06:29:16.617Z,10.86
2023-05-24T06:30:16.520Z,10.88
2023-05-24T06:31:16.573Z,10.81
2023-05-24T06:32:16.425Z,10.88
2023-05-24T06:33:16.551Z,10.98
2023-05-24T06:34:16.374Z,11.05
2023-05-24T06:35:16.507Z,11.11
2023-05-24T06:36:16.331Z,11.12
2023-05-24T06:37:16.316Z,11.27
2023-05-24T06:38:16.317Z,11.35
2023-05-24T06:39:16.409Z,11.41
2023-05-24T06:40:16.249Z,11.38
2023-05-24T06:41:16.277Z,11.41
2023-05-24T06:42:16.182Z,11.39
2023-05-24T06:43:16.176Z,11.41
2023-05-24T06:44:16.153Z,11.42
2023-05-24T06:45:16.204Z,11.36
2023-05-24T06:46:16.120Z,11.48
2023-05-24T06:47:16.292Z,11.41
2023-05-24T06:48:16.204Z,11.38
2023-05-24T06:49:16.036Z,11.38
2023-05-24T06:50:16.001Z,11.42
2023-05-24T06:51:16.046Z,11.56
2023-05-24T06:52:15.948Z,11.67
2023-05-24T06:53:16.061Z,11.64
2023-05-24T06:54:15.906Z,11.70
2023-05-24T06:55:15.878Z,11.66
2023-05-24T06:56:15.983Z,11.87
2023-05-24T06:57:15.836Z,12.03
2023-05-24T06:58:15.899Z,12.04
2023-05-24T06:59:15.780Z,12.08
2023-05-24T07:00:15.776Z,12.21
2023-05-24T07:01:15.739Z,12.21
2023-05-24T07:02:15.814Z,12.31
2023-05-24T07:03:15.740Z,12.38
2023-05-24T07:04:15.793Z,12.54
2023-05-24T07:05:15.632Z,12.55
2023-05-24T07:06:15.618Z,12.63
2023-05-24T07:07:15.581Z,12.80
2023-05-24T07:08:15.652Z,12.95
2023-05-24T07:09:15.545Z,13.01
2023-05-24T07:10:15.625Z,12.99
2023-05-24T07:11:15.566Z,13.07
2023-05-24T07:12:15.484Z,13.10
2023-05-24T07:13:15.513Z,12.96
2023-05-24T07:14:15.414Z,13.14
2023-05-24T07:15:15.506Z,13.14
2023-05-24T07:16:15.426Z,13.16
2023-05-24T07:17:15.396Z,13.17
2023-05-24T07:18:15.329Z,13.14
2023-05-24T07:19:15.395Z,13.16
2023-05-24T07:20:15.307Z,13.24
2023-05-24T07:21:15.349Z,13.22
2023-05-24T07:22:15.234Z,13.22
2023-05-24T07:23:15.202Z,13.22
2023-05-24T07:24:16.351Z,13.22
2023-05-24T07:25:15.258Z,13.21
2023-05-24T07:26:15.152Z,13.16
2023-05-24T07:27:15.167Z,13.31
2023-05-24T07:28:15.100Z,13.25
2023-05-24T07:29:15.064Z,13.29
2023-05-24T07:30:30.618Z,13.36
2023-05-24T07:31:15.030Z,13.38
2023-05-24T07:32:15.139Z,13.53
2023-05-24T07:33:15.020Z,13.51
2023-05-24T07:34:15.016Z,13.66
2023-05-24T07:35:14.935Z,13.63
2023-05-24T07:36:15.027Z,13.50
2023-05-24T07:37:14.883Z,13.41
2023-05-24T07:38:14.937Z,13.51
2023-05-24T07:39:14.862Z,13.51
2023-05-24T07:40:14.884Z,13.55
2023-05-24T07:41:14.801Z,13.50
2023-05-24T07:42:14.869Z,13.41
2023-05-24T07:43:14.751Z,13.36
2023-05-24T07:44:15.773Z,13.48
2023-05-24T07:45:14.718Z,13.48
2023-05-24T07:46:14.690Z,13.53
2023-05-24T07:47:14.666Z,13.65
2023-05-24T07:48:14.747Z,13.65
2023-05-24T07:49:14.610Z,13.62
2023-05-24T07:50:14.632Z,13.65
2023-05-24T07:51:14.583Z,13.72
2023-05-24T07:52:14.559Z,13.83
2023-05-24T07:53:14.540Z,13.84
2023-05-24T07:54:14.560Z,13.86
2023-05-24T07:55:14.494Z,13.91
2023-05-24T07:56:14.454Z,13.83
2023-05-24T07:57:14.467Z,13.81
2023-05-24T07:58:14.412Z,13.91
2023-05-24T07:59:14.496Z,13.98
2023-05-24T08:00:14.474Z,14.12
2023-05-24T08:01:14.418Z,14.21
2023-05-24T08:02:14.322Z,14.29
2023-05-24T08:03:14.494Z,14.31
2023-05-24T08:04:14.285Z,14.29
2023-05-24T08:05:14.325Z,14.36
2023-05-24T08:06:14.234Z,14.26
2023-05-24T08:07:14.393Z,14.24
2023-05-24T08:08:14.274Z,14.30
2023-05-24T08:09:14.247Z,14.23
2023-05-24T08:10:14.265Z,14.19
2023-05-24T08:11:14.184Z,13.90
2023-05-24T08:12:16.990Z,13.71
2023-05-24T08:13:14.163Z,13.62
2023-05-24T08:14:14.059Z,13.84
2023-05-24T08:15:14.065Z,13.98
2023-05-24T08:16:14.092Z,14.17
2023-05-24T08:17:14.089Z,14.27
2023-05-24T08:18:14.026Z,14.45
2023-05-24T08:19:14.000Z,14.54
2023-05-24T08:20:13.985Z,14.67
2023-05-24T08:21:13.904Z,14.82
2023-05-24T08:22:13.913Z,14.94
2023-05-24T08:23:13.948Z,15.03
2023-05-24T08:24:14.039Z,15.11
2023-05-24T08:25:13.833Z,15.20
2023-05-24T08:26:13.818Z,15.22
2023-05-24T08:27:13.785Z,15.35
2023-05-24T08:28:13.817Z,15.40
2023-05-24T08:29:13.786Z,15.48
2023-05-24T08:30:13.713Z,15.34
2023-05-24T08:31:13.816Z,15.28
2023-05-24T08:32:13.735Z,15.18
2023-05-24T08:33:13.675Z,15.05
2023-05-24T08:34:13.713Z,15.00
2023-05-24T08:35:21.299Z,15.00
2023-05-24T08:36:13.596Z,15.01
2023-05-24T08:37:15.566Z,14.97
2023-05-24T08:38:13.548Z,15.00
2023-05-24T08:39:13.516Z,15.01
2023-05-24T08:40:13.540Z,14.90
2023-05-24T08:41:13.492Z,14.80
2023-05-24T08:42:13.553Z,14.80
2023-05-24T08:43:13.442Z,14.79
2023-05-24T08:44:13.421Z,14.72
2023-05-24T08:45:13.400Z,14.75
2023-05-24T08:46:13.428Z,14.74
2023-05-24T08:47:13.350Z,14.71
2023-05-24T08:48:13.470Z,14.69
2023-05-24T08:49:13.307Z,14.66
2023-05-24T08:50:13.292Z,14.72
2023-05-24T08:51:13.261Z,14.64
2023-05-24T08:52:13.324Z,14.75
2023-05-24T08:53:13.216Z,14.74
2023-05-24T08:54:13.244Z,14.72
2023-05-24T08:55:13.171Z,14.64
2023-05-24T08:56:13.188Z,14.66
2023-05-24T08:57:13.158Z,14.66
2023-05-24T08:58:13.122Z,14.75
2023-05-24T08:59:13.186Z,14.69
2023-05-24T09:00:13.223Z,14.72
2023-05-24T09:01:13.135Z,14.74
2023-05-24T09:02:13.130Z,14.80
2023-05-24T09:03:13.181Z,14.93
2023-05-24T09:04:13.002Z,14.90
2023-05-24T09:05:13.018Z,14.94
2023-05-24T09:06:12.948Z,15.01
2023-05-24T09:07:12.924Z,15.16
2023-05-24T09:08:12.904Z,15.13
2023-05-24T09:09:12.930Z,15.31
2023-05-24T09:10:12.859Z,15.23
2023-05-24T09:11:12.881Z,15.37
2023-05-24T09:12:16.850Z,15.34
2023-05-24T09:13:12.791Z,15.41
2023-05-24T09:14:12.765Z,15.48
2023-05-24T09:15:12.773Z,15.49
2023-05-24T09:16:12.780Z,15.52
2023-05-24T09:17:12.782Z,15.56
2023-05-24T09:18:12.720Z,15.66
2023-05-24T09:19:12.664Z,15.67
2023-05-24T09:20:12.805Z,15.71
2023-05-24T09:21:12.627Z,15.84
2023-05-24T09:22:12.618Z,15.88
2023-05-24T09:23:12.593Z,15.92
2023-05-24T09:24:12.629Z,16.07
2023-05-24T09:25:12.537Z,16.11
2023-05-24T09:26:12.561Z,16.26
2023-05-24T09:27:12.505Z,16.26
2023-05-24T09:28:12.631Z,16.17
2023-05-24T09:29:12.447Z,16.07
2023-05-24T09:30:12.784Z,16.07
2023-05-24T09:31:12.510Z,16.14
2023-05-24T09:32:12.489Z,16.13
2023-05-24T09:33:12.426Z,16.17
2023-05-24T09:34:12.398Z,16.23
2023-05-24T09:35:12.351Z,16.30
2023-05-24T09:36:12.321Z,16.16
2023-05-24T09:37:12.279Z,16.17
2023-05-24T09:38:12.322Z,16.22
2023-05-24T09:39:12.237Z,16.18
2023-05-24T09:40:12.236Z,16.32
2023-05-24T09:41:12.210Z,16.32
2023-05-24T09:42:12.177Z,16.26
2023-05-24T09:43:12.172Z,16.27
2023-05-24T09:44:12.177Z,16.16
2023-05-24T09:45:12.130Z,16.29
2023-05-24T09:46:12.178Z,16.23
2023-05-24T09:47:12.128Z,16.14
2023-05-24T09:48:12.134Z,16.08
2023-05-24T09:49:12.115Z,15.99
2023-05-24T09:50:12.022Z,16.06
2023-05-24T09:51:12.044Z,16.11
2023-05-24T09:52:12.002Z,16.23
2023-05-24T09:53:12.035Z,16.23
2023-05-24T09:54:11.930Z,16.11
2023-05-24T09:55:11.942Z,15.95
2023-05-24T09:56:11.893Z,15.88
2023-05-24T09:57:11.951Z,15.92
2023-05-24T09:58:11.873Z,15.92
2023-05-24T09:59:11.839Z,15.95
2023-05-24T10:00:11.989Z,15.91
2023-05-24T10:01:11.927Z,15.93
2023-05-24T10:02:11.781Z,15.96
2023-05-24T10:03:12.014Z,15.98
2023-05-24T10:04:11.966Z,15.89
2023-05-24T10:05:11.731Z,15.88
2023-05-24T10:06:11.703Z,15.81
2023-05-24T10:07:11.728Z,15.66
2023-05-24T10:08:11.660Z,15.55
2023-05-24T10:09:11.748Z,15.62
2023-05-24T10:10:11.602Z,15.66
2023-05-24T10:11:11.616Z,15.58
2023-05-24T10:12:11.597Z,15.66
2023-05-24T10:13:11.572Z,15.59
2023-05-24T10:14:11.542Z,15.58
2023-05-24T10:15:11.580Z,15.56
2023-05-24T10:16:11.710Z,15.43
2023-05-24T10:17:11.612Z,15.59
2023-05-24T10:18:13.867Z,15.51
2023-05-24T10:19:11.421Z,15.43
2023-05-24T10:20:11.706Z,15.38
2023-05-24T10:21:11.422Z,15.46
2023-05-24T10:22:11.373Z,15.35
2023-05-24T10:23:11.355Z,15.41
2023-05-24T10:24:11.442Z,15.46
2023-05-24T10:25:11.296Z,15.51
2023-05-24T10:26:11.450Z,15.46
2023-05-24T10:27:11.284Z,15.60
2023-05-24T10:28:11.241Z,15.66
2023-05-24T10:29:11.392Z,15.70
2023-05-24T10:30:13.694Z,15.85
2023-05-24T10:31:11.406Z,15.92
2023-05-24T10:32:11.167Z,16.11
2023-05-24T10:33:11.329Z,16.17
2023-05-24T10:34:11.113Z,16.27
2023-05-24T10:35:11.203Z,16.37
2023-05-24T10:36:11.085Z,16.60
2023-05-24T10:37:11.216Z,16.77
2023-05-24T10:38:11.105Z,17.00
2023-05-24T10:39:11.158Z,17.14
2023-05-24T10:40:10.987Z,17.25
2023-05-24T10:41:11.208Z,17.20
2023-05-24T10:42:10.945Z,17.43
2023-05-24T10:43:11.082Z,17.49
2023-05-24T10:44:10.989Z,17.47
2023-05-24T10:45:11.080Z,17.63
2023-05-24T10:46:10.930Z,17.57
2023-05-24T10:47:11.018Z,17.77
2023-05-24T10:48:10.897Z,17.74
2023-05-24T10:49:10.997Z,17.94
2023-05-24T10:50:10.830Z,18.21
2023-05-24T10:51:10.875Z,18.36
2023-05-24T10:52:10.776Z,18.46
2023-05-24T10:53:10.931Z,18.64
2023-05-24T10:54:10.824Z,18.75
2023-05-24T10:55:10.872Z,18.78
2023-05-24T10:56:10.673Z,18.91
2023-05-24T10:57:10.641Z,18.93
2023-05-24T10:58:10.656Z,18.99
2023-05-24T10:59:10.625Z,19.09
2023-05-24T11:00:13.612Z,18.84
2023-05-24T11:01:10.575Z,18.78
2023-05-24T11:02:10.859Z,18.59
2023-05-24T11:03:10.785Z,18.46
2023-05-24T11:04:10.532Z,18.46
2023-05-24T11:05:10.768Z,18.41
2023-05-24T11:06:10.485Z,18.42
2023-05-24T11:07:10.652Z,18.25
2023-05-24T11:08:10.462Z,18.28
2023-05-24T11:09:10.425Z,18.17
2023-05-24T11:10:10.398Z,18.26
2023-05-24T11:11:22.533Z,18.32
2023-05-24T11:12:10.352Z,18.38
2023-05-24T11:13:10.452Z,18.39
2023-05-24T11:14:10.332Z,18.62
2023-05-24T11:15:10.303Z,18.86
2023-05-24T11:16:10.624Z,19.21
2023-05-24T11:17:10.267Z,19.49
2023-05-24T11:18:10.477Z,19.87
2023-05-24T11:19:10.246Z,20.33
2023-05-24T11:20:10.377Z,20.64
2023-05-24T11:21:10.303Z,20.72
2023-05-24T11:22:10.185Z,20.58
2023-05-24T11:23:10.334Z,20.46
2023-05-24T11:24:10.130Z,20.46
2023-05-24T11:25:10.231Z,20.41
2023-05-24T11:26:10.118Z,20.20
2023-05-24T11:27:10.261Z,20.38
2023-05-24T11:28:10.120Z,20.50
2023-05-24T11:29:10.174Z,20.51
2023-05-24T11:30:10.059Z,20.68
2023-05-24T11:31:10.085Z,20.64
2023-05-24T11:32:10.204Z,20.87
2023-05-24T11:33:10.148Z,21.00
2023-05-24T11:34:09.942Z,21.15
2023-05-24T11:35:10.113Z,21.08
2023-05-24T11:36:09.924Z,21.03
2023-05-24T11:37:09.894Z,20.81
2023-05-24T11:38:10.028Z,20.73
2023-05-24T11:39:09.879Z,20.57
2023-05-24T11:40:10.074Z,20.58
2023-05-24T11:41:09.818Z,20.51
2023-05-24T11:42:09.808Z,20.51
2023-05-24T11:43:09.789Z,20.71
2023-05-24T11:44:09.957Z,20.66
2023-05-24T11:45:09.756Z,20.56
2023-05-24T11:46:09.922Z,20.46
2023-05-24T11:47:09.712Z,20.17
2023-05-24T11:48:09.726Z,20.19
2023-05-24T11:49:09.789Z,20.27
2023-05-24T11:50:09.704Z,20.37
2023-05-24T11:51:09.808Z,20.51
2023-05-24T11:52:09.699Z,20.48
2023-05-24T11:53:09.626Z,20.37
2023-05-24T11:54:09.589Z,20.38
2023-05-24T11:55:09.726Z,20.22
2023-05-24T11:56:09.562Z,20.08
2023-05-24T11:57:09.748Z,20.02
2023-05-24T11:58:09.542Z,19.75
2023-05-24T11:59:09.509Z,19.67
2023-05-24T12:00:09.527Z,19.47
2023-05-24T12:01:09.669Z,19.58
2023-05-24T12:02:09.531Z,19.45
2023-05-24T12:03:09.705Z,19.35
2023-05-24T12:04:09.507Z,19.27
2023-05-24T12:05:09.432Z,19.32
2023-05-24T12:06:09.509Z,19.25
2023-05-24T12:07:09.431Z,19.31
2023-05-24T12:08:12.433Z,19.34
2023-05-24T12:09:09.349Z,19.53
2023-05-24T12:10:09.450Z,19.65
2023-05-24T12:11:09.320Z,19.80
2023-05-24T12:12:09.440Z,20.00
2023-05-24T12:13:09.274Z,19.98
2023-05-24T12:14:09.352Z,19.90
2023-05-24T12:15:09.225Z,19.52
2023-05-24T12:16:09.260Z,19.28
2023-05-24T12:17:09.196Z,19.06
2023-05-24T12:18:09.421Z,18.76
2023-05-24T12:19:16.991Z,18.42
2023-05-24T12:20:09.251Z,18.19
2023-05-24T12:21:09.321Z,18.07
2023-05-24T12:22:09.119Z,18.02
2023-05-24T12:23:09.219Z,18.14
2023-05-24T12:24:09.129Z,18.28
2023-05-24T12:25:09.241Z,18.31
2023-05-24T12:26:09.029Z,18.31
2023-05-24T12:27:09.226Z,18.34
2023-05-24T12:28:08.991Z,18.39
2023-05-24T12:29:09.150Z,18.19
2023-05-24T12:30:08.975Z,18.20
2023-05-24T12:31:09.079Z,18.14
2023-05-24T12:32:08.931Z,18.26
2023-05-24T12:33:09.131Z,18.29
2023-05-24T12:34:08.878Z,18.20
2023-05-24T12:35:08.992Z,17.99
2023-05-24T12:36:08.842Z,17.91
2023-05-24T12:37:09.004Z,17.73
2023-05-24T12:38:08.816Z,17.66
2023-05-24T12:39:08.923Z,17.54
2023-05-24T12:40:08.810Z,17.42
2023-05-24T12:41:13.519Z,17.38
2023-05-24T12:42:08.733Z,17.38
2023-05-24T12:43:08.857Z,17.49
2023-05-24T12:44:08.708Z,17.45
2023-05-24T12:45:08.694Z,17.38
2023-05-24T12:46:08.674Z,17.32
2023-05-24T12:47:09.089Z,17.22
2023-05-24T12:48:08.698Z,17.25
2023-05-24T12:49:08.788Z,17.18
2023-05-24T12:50:08.668Z,17.35
2023-05-24T12:51:08.557Z,17.32
2023-05-24T12:52:08.704Z,17.39
2023-05-24T12:53:08.531Z,17.35
2023-05-24T12:54:08.616Z,17.42
2023-05-24T12:55:08.490Z,17.43
2023-05-24T12:56:08.493Z,17.38
2023-05-24T12:57:08.447Z,17.35
2023-05-24T12:58:08.538Z,17.36
2023-05-24T12:59:08.408Z,17.42
2023-05-24T13:00:08.551Z,17.40
2023-05-24T13:01:08.385Z,17.40
2023-05-24T13:02:08.371Z,17.40
2023-05-24T13:03:08.375Z,17.36
2023-05-24T13:04:08.482Z,17.46